sensor_id;sensor_type;location;lat;lon;timestamp;pressure;altitude;pressure_sealevel;temperature;humidity
19789;BME280;10054;59.332;18.244;2023-10-08T00:02:30;100382.38;;;4.04;83.70
19789;BME280;10054;59.332;18.244;2023-10-08T00:04:59;100393.33;;;4.02;84.54
19789;BME280;10054;59.332;18.244;2023-10-08T00:07:28;100391.69;;;4.00;84.87
19789;BME280;10054;59.332;18.244;2023-10-08T00:09:57;100396.52;;;3.99;85.26
19789;BME280;10054;59.332;18.244;2023-10-08T00:12:26;100399.98;;;3.99;84.73
19789;BME280;10054;59.332;18.244;2023-10-08T00:14:56;100400.88;;;3.98;84.82
19789;BME280;10054;59.332;18.244;2023-10-08T00:17:27;100408.31;;;3.97;85.06
19789;BME280;10054;59.332;18.244;2023-10-08T00:19:56;100405.77;;;3.95;85.24
19789;BME280;10054;59.332;18.244;2023-10-08T00:22:26;100407.59;;;3.93;84.58
19789;BME280;10054;59.332;18.244;2023-10-08T00:24:56;100405.49;;;3.91;85.01
19789;BME280;10054;59.332;18.244;2023-10-08T00:27:25;100413.72;;;3.92;85.39
19789;BME280;10054;59.332;18.244;2023-10-08T00:29:54;100413.37;;;3.90;84.72
19789;BME280;10054;59.332;18.244;2023-10-08T00:32:24;100411.23;;;3.89;84.42
19789;BME280;10054;59.332;18.244;2023-10-08T00:34:53;100427.73;;;3.90;85.29
19789;BME280;10054;59.332;18.244;2023-10-08T00:37:22;100413.72;;;3.92;85.20
19789;BME280;10054;59.332;18.244;2023-10-08T00:39:52;100416.44;;;3.89;85.29
19789;BME280;10054;59.332;18.244;2023-10-08T00:42:23;100422.00;;;3.92;85.08
19789;BME280;10054;59.332;18.244;2023-10-08T00:44:53;100409.02;;;3.90;84.55
19789;BME280;10054;59.332;18.244;2023-10-08T00:47:22;100406.58;;;3.86;85.21
19789;BME280;10054;59.332;18.244;2023-10-08T00:49:52;100413.55;;;3.85;85.52
19789;BME280;10054;59.332;18.244;2023-10-08T00:52:36;100412.59;;;3.88;85.03
19789;BME280;10054;59.332;18.244;2023-10-08T00:55:09;100413.05;;;3.87;85.35
19789;BME280;10054;59.332;18.244;2023-10-08T00:57:39;100415.66;;;3.87;84.39
19789;BME280;10054;59.332;18.244;2023-10-08T01:00:11;100423.02;;;3.88;85.44
19789;BME280;10054;59.332;18.244;2023-10-08T01:02:41;100432.22;;;3.86;85.41
19789;BME280;10054;59.332;18.244;2023-10-08T01:05:21;100418.77;;;3.85;84.90
19789;BME280;10054;59.332;18.244;2023-10-08T01:07:53;100426.14;;;3.86;84.74
19789;BME280;10054;59.332;18.244;2023-10-08T01:10:23;100414.86;;;3.85;85.45
19789;BME280;10054;59.332;18.244;2023-10-08T01:12:52;100411.86;;;3.84;85.21
19789;BME280;10054;59.332;18.244;2023-10-08T01:15:25;100424.90;;;3.84;85.44
19789;BME280;10054;59.332;18.244;2023-10-08T01:17:56;100421.89;;;3.83;85.25
19789;BME280;10054;59.332;18.244;2023-10-08T01:20:28;100420.59;;;3.83;84.52
19789;BME280;10054;59.332;18.244;2023-10-08T01:23:10;100418.89;;;3.82;84.42
19789;BME280;10054;59.332;18.244;2023-10-08T01:25:44;100418.89;;;3.82;85.10
19789;BME280;10054;59.332;18.244;2023-10-08T01:28:32;100423.37;;;3.79;85.06
19789;BME280;10054;59.332;18.244;2023-10-08T01:31:02;100420.31;;;3.79;84.65
19789;BME280;10054;59.332;18.244;2023-10-08T01:33:31;100424.11;;;3.82;84.82
19789;BME280;10054;59.332;18.244;2023-10-08T01:36:02;100431.94;;;3.82;84.64
19789;BME280;10054;59.332;18.244;2023-10-08T01:38:32;100428.14;;;3.79;84.87
19789;BME280;10054;59.332;18.244;2023-10-08T01:41:00;100425.02;;;3.81;84.91
19789;BME280;10054;59.332;18.244;2023-10-08T01:43:35;100424.68;;;3.79;84.73
19789;BME280;10054;59.332;18.244;2023-10-08T01:46:05;100426.04;;;3.77;84.99
19789;BME280;10054;59.332;18.244;2023-10-08T01:48:35;100423.43;;;3.77;84.63
19789;BME280;10054;59.332;18.244;2023-10-08T01:51:06;100422.47;;;3.80;84.32
19789;BME280;10054;59.332;18.244;2023-10-08T01:53:37;100429.05;;;3.78;85.07
19789;BME280;10054;59.332;18.244;2023-10-08T01:56:06;100430.02;;;3.76;85.40
19789;BME280;10054;59.332;18.244;2023-10-08T01:58:35;100423.09;;;3.75;85.09
19789;BME280;10054;59.332;18.244;2023-10-08T02:01:04;100423.55;;;3.74;85.44
19789;BME280;10054;59.332;18.244;2023-10-08T02:03:34;100429.67;;;3.73;85.44
19789;BME280;10054;59.332;18.244;2023-10-08T02:06:05;100433.92;;;3.76;85.15
19789;BME280;10054;59.332;18.244;2023-10-08T02:08:37;100432.22;;;3.75;85.69
19789;BME280;10054;59.332;18.244;2023-10-08T02:11:05;100432.73;;;3.73;85.98
19789;BME280;10054;59.332;18.244;2023-10-08T02:13:36;100440.66;;;3.71;86.03
19789;BME280;10054;59.332;18.244;2023-10-08T02:16:05;100449.78;;;3.71;86.15
19789;BME280;10054;59.332;18.244;2023-10-08T02:18:34;100440.70;;;3.70;85.71
19789;BME280;10054;59.332;18.244;2023-10-08T02:21:03;100440.77;;;3.68;86.17
19789;BME280;10054;59.332;18.244;2023-10-08T02:23:32;100440.31;;;3.69;86.25
19789;BME280;10054;59.332;18.244;2023-10-08T02:26:02;100444.67;;;3.68;86.54
19789;BME280;10054;59.332;18.244;2023-10-08T02:28:31;100457.72;;;3.68;86.25
19789;BME280;10054;59.332;18.244;2023-10-08T02:31:00;100450.29;;;3.69;86.40
19789;BME280;10054;59.332;18.244;2023-10-08T02:33:31;100450.69;;;3.70;86.08
19789;BME280;10054;59.332;18.244;2023-10-08T02:36:03;100455.51;;;3.69;85.98
19789;BME280;10054;59.332;18.244;2023-10-08T02:38:32;100456.41;;;3.68;86.42
19789;BME280;10054;59.332;18.244;2023-10-08T02:41:02;100470.25;;;3.70;86.50
19789;BME280;10054;59.332;18.244;2023-10-08T02:43:36;100475.87;;;3.71;86.29
19789;BME280;10054;59.332;18.244;2023-10-08T02:46:04;100463.73;;;3.70;86.03
19789;BME280;10054;59.332;18.244;2023-10-08T02:48:37;100468.55;;;3.69;86.23
19789;BME280;10054;59.332;18.244;2023-10-08T02:51:06;100462.42;;;3.70;86.26
19789;BME280;10054;59.332;18.244;2023-10-08T02:53:37;100462.42;;;3.70;86.88
19789;BME280;10054;59.332;18.244;2023-10-08T02:56:07;100463.79;;;3.69;86.75
19789;BME280;10054;59.332;18.244;2023-10-08T02:58:37;100462.83;;;3.71;86.63
19789;BME280;10054;59.332;18.244;2023-10-08T03:01:07;100473.77;;;3.69;87.23
19789;BME280;10054;59.332;18.244;2023-10-08T03:03:39;100467.75;;;3.67;87.67
19789;BME280;10054;59.332;18.244;2023-10-08T03:06:09;100469.91;;;3.68;87.80
19789;BME280;10054;59.332;18.244;2023-10-08T03:08:40;100474.73;;;3.67;87.66
19789;BME280;10054;59.332;18.244;2023-10-08T03:11:10;100476.03;;;3.67;87.36
19789;BME280;10054;59.332;18.244;2023-10-08T03:13:45;100485.22;;;3.65;87.88
19789;BME280;10054;59.332;18.244;2023-10-08T03:16:16;100488.68;;;3.66;87.31
19789;BME280;10054;59.332;18.244;2023-10-08T03:18:46;100490.05;;;3.64;88.31
19789;BME280;10054;59.332;18.244;2023-10-08T03:21:17;100488.39;;;3.61;88.73
19789;BME280;10054;59.332;18.244;2023-10-08T03:23:48;100485.39;;;3.60;88.92
19789;BME280;10054;59.332;18.244;2023-10-08T03:26:21;100492.36;;;3.60;88.79
19789;BME280;10054;59.332;18.244;2023-10-08T03:29:03;100488.50;;;3.58;88.71
19789;BME280;10054;59.332;18.244;2023-10-08T03:31:40;100499.84;;;3.57;88.49
19789;BME280;10054;59.332;18.244;2023-10-08T03:34:15;100499.84;;;3.57;89.68
19789;BME280;10054;59.332;18.244;2023-10-08T03:36:47;100502.50;;;3.56;89.77
19789;BME280;10054;59.332;18.244;2023-10-08T03:39:18;100505.67;;;3.52;89.91
19789;BME280;10054;59.332;18.244;2023-10-08T03:41:47;100513.50;;;3.52;89.55
19789;BME280;10054;59.332;18.244;2023-10-08T03:44:35;100516.05;;;3.54;89.97
19789;BME280;10054;59.332;18.244;2023-10-08T03:47:05;100514.86;;;3.51;89.54
19789;BME280;10054;59.332;18.244;2023-10-08T03:49:35;100527.89;;;3.51;90.21
19789;BME280;10054;59.332;18.244;2023-10-08T03:52:05;100523.08;;;3.52;90.67
19789;BME280;10054;59.332;18.244;2023-10-08T03:54:35;100540.03;;;3.52;90.24
19789;BME280;10054;59.332;18.244;2023-10-08T03:57:05;100540.94;;;3.51;89.91
19789;BME280;10054;59.332;18.244;2023-10-08T03:59:35;100540.88;;;3.52;90.47
19789;BME280;10054;59.332;18.244;2023-10-08T04:02:06;100553.07;;;3.52;90.58
19789;BME280;10054;59.332;18.244;2023-10-08T04:04:46;100543.09;;;3.51;89.82
19789;BME280;10054;59.332;18.244;2023-10-08T04:07:19;100543.49;;;3.52;90.53
19789;BME280;10054;59.332;18.244;2023-10-08T04:10:02;100555.63;;;3.53;90.63
19789;BME280;10054;59.332;18.244;2023-10-08T04:12:39;100538.78;;;3.50;90.57
19789;BME280;10054;59.332;18.244;2023-10-08T04:15:15;100557.38;;;3.53;90.56
19789;BME280;10054;59.332;18.244;2023-10-08T04:17:44;100556.88;;;3.55;90.33
19789;BME280;10054;59.332;18.244;2023-10-08T04:20:14;100561.19;;;3.56;90.07
19789;BME280;10054;59.332;18.244;2023-10-08T04:23:10;100561.98;;;3.58;89.97
19789;BME280;10054;59.332;18.244;2023-10-08T04:25:43;100562.39;;;3.59;89.40
19789;BME280;10054;59.332;18.244;2023-10-08T04:28:12;100573.72;;;3.58;89.43
19789;BME280;10054;59.332;18.244;2023-10-08T04:30:48;100576.33;;;3.58;90.30
19789;BME280;10054;59.332;18.244;2023-10-08T04:33:15;100581.50;;;3.59;90.31
19789;BME280;10054;59.332;18.244;2023-10-08T04:35:46;100583.66;;;3.60;89.96
19789;BME280;10054;59.332;18.244;2023-10-08T04:38:26;100588.42;;;3.60;90.00
19789;BME280;10054;59.332;18.244;2023-10-08T04:40:56;100587.01;;;3.63;90.49
19789;BME280;10054;59.332;18.244;2023-10-08T04:43:27;100604.31;;;3.66;90.64
19789;BME280;10054;59.332;18.244;2023-10-08T04:46:01;100605.97;;;3.69;90.14
19789;BME280;10054;59.332;18.244;2023-10-08T04:48:34;100600.80;;;3.67;90.05
19789;BME280;10054;59.332;18.244;2023-10-08T04:51:04;100602.55;;;3.67;90.84
19789;BME280;10054;59.332;18.244;2023-10-08T04:53:33;100611.63;;;3.68;90.57
19789;BME280;10054;59.332;18.244;2023-10-08T04:56:11;100631.15;;;3.70;90.82
19789;BME280;10054;59.332;18.244;2023-10-08T04:58:50;100623.77;;;3.69;90.94
19789;BME280;10054;59.332;18.244;2023-10-08T05:01:20;100618.42;;;3.72;91.07
19789;BME280;10054;59.332;18.244;2023-10-08T05:03:50;100631.41;;;3.74;90.56
19789;BME280;10054;59.332;18.244;2023-10-08T05:06:28;100637.13;;;3.72;90.91
19789;BME280;10054;59.332;18.244;2023-10-08T05:09:07;100626.64;;;3.73;91.16
19789;BME280;10054;59.332;18.244;2023-10-08T05:11:52;100635.27;;;3.75;90.77
19789;BME280;10054;59.332;18.244;2023-10-08T05:14:24;100633.97;;;3.75;90.67
19789;BME280;10054;59.332;18.244;2023-10-08T05:17:07;100638.23;;;3.78;90.82
19789;BME280;10054;59.332;18.244;2023-10-08T05:19:41;100636.82;;;3.81;90.81
19789;BME280;10054;59.332;18.244;2023-10-08T05:22:18;100639.38;;;3.82;91.01
19789;BME280;10054;59.332;18.244;2023-10-08T05:25:01;100660.25;;;3.82;91.17
19789;BME280;10054;59.332;18.244;2023-10-08T05:27:45;100661.85;;;3.86;90.85
19789;BME280;10054;59.332;18.244;2023-10-08T05:30:23;100672.69;;;3.87;90.55
19789;BME280;10054;59.332;18.244;2023-10-08T05:33:12;100675.70;;;3.88;91.02
19789;BME280;10054;59.332;18.244;2023-10-08T05:35:44;100687.29;;;3.93;90.62
19789;BME280;10054;59.332;18.244;2023-10-08T05:38:22;100673.69;;;3.96;90.43
19789;BME280;10054;59.332;18.244;2023-10-08T05:40:53;100683.91;;;4.03;89.88
19789;BME280;10054;59.332;18.244;2023-10-08T05:43:37;100682.91;;;4.07;89.72
19789;BME280;10054;59.332;18.244;2023-10-08T05:46:09;100694.03;;;4.12;88.90
19789;BME280;10054;59.332;18.244;2023-10-08T05:48:54;100702.22;;;4.14;89.07
19789;BME280;10054;59.332;18.244;2023-10-08T05:51:31;100699.55;;;4.16;89.64
19789;BME280;10054;59.332;18.244;2023-10-08T05:54:21;100708.58;;;4.19;89.43
19789;BME280;10054;59.332;18.244;2023-10-08T05:57:07;100702.05;;;4.19;89.12
19789;BME280;10054;59.332;18.244;2023-10-08T05:59:44;100713.75;;;4.20;89.10
19789;BME280;10054;59.332;18.244;2023-10-08T06:02:25;100709.33;;;4.22;88.97
19789;BME280;10054;59.332;18.244;2023-10-08T06:05:04;100707.92;;;4.25;88.44
19789;BME280;10054;59.332;18.244;2023-10-08T06:07:45;100721.77;;;4.27;88.18
19789;BME280;10054;59.332;18.244;2023-10-08T06:10:27;100722.52;;;4.31;88.30
19789;BME280;10054;59.332;18.244;2023-10-08T06:13:02;100736.32;;;4.35;88.04
19789;BME280;10054;59.332;18.244;2023-10-08T06:15:45;100734.11;;;4.36;88.05
19789;BME280;10054;59.332;18.244;2023-10-08T06:18:26;100739.23;;;4.39;88.34
19789;BME280;10054;59.332;18.244;2023-10-08T06:20:57;100742.98;;;4.43;87.37
19789;BME280;10054;59.332;18.244;2023-10-08T06:23:30;100750.22;;;4.47;87.16
19789;BME280;10054;59.332;18.244;2023-10-08T06:25:59;100758.75;;;4.52;87.25
19789;BME280;10054;59.332;18.244;2023-10-08T06:28:30;100763.77;;;4.58;86.72
19789;BME280;10054;59.332;18.244;2023-10-08T06:31:01;100760.94;;;4.64;86.50
19789;BME280;10054;59.332;18.244;2023-10-08T06:33:30;100759.91;;;4.68;86.40
19789;BME280;10054;59.332;18.244;2023-10-08T06:36:00;100765.77;;;4.75;85.94
19789;BME280;10054;59.332;18.244;2023-10-08T06:38:30;100770.33;;;4.81;85.50
19789;BME280;10054;59.332;18.244;2023-10-08T06:41:04;100774.02;;;4.87;84.79
19789;BME280;10054;59.332;18.244;2023-10-08T06:43:36;100782.04;;;4.94;85.13
19789;BME280;10054;59.332;18.244;2023-10-08T06:46:05;100787.38;;;5.03;84.51
19789;BME280;10054;59.332;18.244;2023-10-08T06:48:35;100784.03;;;5.11;84.12
19789;BME280;10054;59.332;18.244;2023-10-08T06:51:06;100776.07;;;5.14;84.00
19789;BME280;10054;59.332;18.244;2023-10-08T06:53:37;100777.06;;;5.22;83.82
19789;BME280;10054;59.332;18.244;2023-10-08T06:56:07;100796.50;;;5.26;82.53
19789;BME280;10054;59.332;18.244;2023-10-08T06:58:38;100795.81;;;5.33;83.13
19789;BME280;10054;59.332;18.244;2023-10-08T07:01:08;100792.52;;;5.40;82.72
19789;BME280;10054;59.332;18.244;2023-10-08T07:03:37;100802.41;;;5.43;82.26
19789;BME280;10054;59.332;18.244;2023-10-08T07:06:06;100803.08;;;5.48;81.97
19789;BME280;10054;59.332;18.244;2023-10-08T07:08:36;100807.22;;;5.54;82.07
19789;BME280;10054;59.332;18.244;2023-10-08T07:11:05;100809.60;;;5.60;81.59
19789;BME280;10054;59.332;18.244;2023-10-08T07:13:35;100814.20;;;5.65;81.87
19789;BME280;10054;59.332;18.244;2023-10-08T07:16:04;100819.31;;;5.68;81.55
19789;BME280;10054;59.332;18.244;2023-10-08T07:18:35;100817.31;;;5.75;80.92
19789;BME280;10054;59.332;18.244;2023-10-08T07:21:04;100827.20;;;5.78;80.62
19789;BME280;10054;59.332;18.244;2023-10-08T07:23:34;100826.51;;;5.85;81.27
19789;BME280;10054;59.332;18.244;2023-10-08T07:26:03;100839.02;;;5.88;80.88
19789;BME280;10054;59.332;18.244;2023-10-08T07:28:43;100840.87;;;5.97;80.32
19789;BME280;10054;59.332;18.244;2023-10-08T07:31:14;100840.70;;;6.01;80.51
19789;BME280;10054;59.332;18.244;2023-10-08T07:33:44;100850.47;;;6.08;80.50
19789;BME280;10054;59.332;18.244;2023-10-08T07:36:13;100861.89;;;6.17;79.95
19789;BME280;10054;59.332;18.244;2023-10-08T07:38:45;100865.17;;;6.22;79.37
19789;BME280;10054;59.332;18.244;2023-10-08T07:41:14;100868.58;;;6.24;78.90
19789;BME280;10054;59.332;18.244;2023-10-08T07:43:43;100871.93;;;6.28;77.78
19789;BME280;10054;59.332;18.244;2023-10-08T07:46:20;100871.34;;;6.31;77.56
19789;BME280;10054;59.332;18.244;2023-10-08T07:48:49;100886.55;;;6.33;77.76
19789;BME280;10054;59.332;18.244;2023-10-08T07:51:18;100879.94;;;6.35;76.90
19789;BME280;10054;59.332;18.244;2023-10-08T07:53:53;100904.04;;;6.33;76.92
19789;BME280;10054;59.332;18.244;2023-10-08T07:56:25;100892.39;;;6.40;77.33
19789;BME280;10054;59.332;18.244;2023-10-08T07:58:54;100900.00;;;6.46;77.41
19789;BME280;10054;59.332;18.244;2023-10-08T08:01:24;100897.84;;;6.45;76.46
19789;BME280;10054;59.332;18.244;2023-10-08T08:03:53;100892.34;;;6.51;76.02
19789;BME280;10054;59.332;18.244;2023-10-08T08:06:23;100899.69;;;6.53;75.29
19789;BME280;10054;59.332;18.244;2023-10-08T08:08:53;100894.05;;;6.52;75.18
19789;BME280;10054;59.332;18.244;2023-10-08T08:11:22;100904.87;;;6.55;75.50
19789;BME280;10054;59.332;18.244;2023-10-08T08:13:53;100914.38;;;6.57;74.90
19789;BME280;10054;59.332;18.244;2023-10-08T08:16:21;100912.29;;;6.66;75.74
19789;BME280;10054;59.332;18.244;2023-10-08T08:18:52;100919.17;;;6.68;75.36
19789;BME280;10054;59.332;18.244;2023-10-08T08:21:23;100916.68;;;6.65;74.65
19789;BME280;10054;59.332;18.244;2023-10-08T08:23:53;100925.80;;;6.67;75.16
19789;BME280;10054;59.332;18.244;2023-10-08T08:26:24;100923.22;;;6.75;75.01
19789;BME280;10054;59.332;18.244;2023-10-08T08:29:02;100909.71;;;6.74;75.13
19789;BME280;10054;59.332;18.244;2023-10-08T08:31:29;100921.71;;;6.80;74.71
19789;BME280;10054;59.332;18.244;2023-10-08T08:34:03;100924.92;;;6.86;73.78
19789;BME280;10054;59.332;18.244;2023-10-08T08:36:34;100927.42;;;6.89;73.94
19789;BME280;10054;59.332;18.244;2023-10-08T08:39:05;100927.42;;;6.89;73.37
19789;BME280;10054;59.332;18.244;2023-10-08T08:41:38;100934.38;;;7.01;74.54
19789;BME280;10054;59.332;18.244;2023-10-08T08:44:07;100938.37;;;7.09;73.96
19789;BME280;10054;59.332;18.244;2023-10-08T08:46:37;100939.82;;;7.16;73.72
19789;BME280;10054;59.332;18.244;2023-10-08T08:49:08;100941.52;;;7.28;74.17
19789;BME280;10054;59.332;18.244;2023-10-08T08:51:37;100951.09;;;7.29;72.57
19789;BME280;10054;59.332;18.244;2023-10-08T08:54:06;100937.45;;;7.20;71.85
19789;BME280;10054;59.332;18.244;2023-10-08T08:56:37;100959.76;;;7.20;71.78
19789;BME280;10054;59.332;18.244;2023-10-08T08:59:05;100960.67;;;7.30;73.07
19789;BME280;10054;59.332;18.244;2023-10-08T09:01:36;100968.80;;;7.34;71.56
19789;BME280;10054;59.332;18.244;2023-10-08T09:04:06;100962.90;;;7.39;70.92
19789;BME280;10054;59.332;18.244;2023-10-08T09:06:36;100988.55;;;7.42;70.93
19789;BME280;10054;59.332;18.244;2023-10-08T09:09:08;100975.56;;;7.39;70.56
19789;BME280;10054;59.332;18.244;2023-10-08T09:11:53;100969.09;;;7.46;70.40
19789;BME280;10054;59.332;18.244;2023-10-08T09:14:26;100990.61;;;7.54;70.56
19789;BME280;10054;59.332;18.244;2023-10-08T09:16:54;100993.95;;;7.58;70.39
19789;BME280;10054;59.332;18.244;2023-10-08T09:19:26;100988.50;;;7.63;69.79
19789;BME280;10054;59.332;18.244;2023-10-08T09:22:07;100983.18;;;7.64;69.09
19789;BME280;10054;59.332;18.244;2023-10-08T09:24:38;100993.48;;;7.69;69.33
19789;BME280;10054;59.332;18.244;2023-10-08T09:27:08;101005.23;;;7.70;68.91
19789;BME280;10054;59.332;18.244;2023-10-08T09:29:39;100999.17;;;7.78;68.38
19789;BME280;10054;59.332;18.244;2023-10-08T09:32:13;101008.69;;;7.81;67.85
19789;BME280;10054;59.332;18.244;2023-10-08T09:34:44;101005.60;;;7.81;67.31
19789;BME280;10054;59.332;18.244;2023-10-08T09:37:13;101001.25;;;7.90;65.45
19789;BME280;10054;59.332;18.244;2023-10-08T09:39:43;101019.95;;;7.93;66.72
19789;BME280;10054;59.332;18.244;2023-10-08T09:42:13;101017.80;;;7.93;65.65
19789;BME280;10054;59.332;18.244;2023-10-08T09:44:42;101026.34;;;7.87;63.54
19789;BME280;10054;59.332;18.244;2023-10-08T09:47:12;101020.67;;;7.97;64.55
19789;BME280;10054;59.332;18.244;2023-10-08T09:49:57;101019.34;;;8.07;65.07
19789;BME280;10054;59.332;18.244;2023-10-08T09:52:36;101026.80;;;8.16;64.75
19789;BME280;10054;59.332;18.244;2023-10-08T09:55:09;101026.66;;;8.28;64.57
19789;BME280;10054;59.332;18.244;2023-10-08T09:57:41;101042.22;;;8.32;62.29
19789;BME280;10054;59.332;18.244;2023-10-08T10:00:11;101046.84;;;8.37;63.34
19789;BME280;10054;59.332;18.244;2023-10-08T10:02:42;101049.64;;;8.43;61.96
19789;BME280;10054;59.332;18.244;2023-10-08T10:05:12;101047.76;;;8.36;61.83
19789;BME280;10054;59.332;18.244;2023-10-08T10:07:42;101036.32;;;8.37;61.23
19789;BME280;10054;59.332;18.244;2023-10-08T10:10:28;101049.43;;;8.47;62.35
19789;BME280;10054;59.332;18.244;2023-10-08T10:13:00;101061.19;;;8.49;60.10
19789;BME280;10054;59.332;18.244;2023-10-08T10:15:28;101068.75;;;8.46;60.12
19789;BME280;10054;59.332;18.244;2023-10-08T10:20:51;101073.02;;;8.49;61.38
19789;BME280;10054;59.332;18.244;2023-10-08T10:23:37;101087.05;;;8.58;61.08
19789;BME280;10054;59.332;18.244;2023-10-08T10:26:06;101083.11;;;8.58;60.81
19789;BME280;10054;59.332;18.244;2023-10-08T10:28:37;101084.59;;;8.64;61.39
19789;BME280;10054;59.332;18.244;2023-10-08T10:31:05;101076.95;;;8.68;61.89
19789;BME280;10054;59.332;18.244;2023-10-08T10:33:35;101089.75;;;8.75;60.56
19789;BME280;10054;59.332;18.244;2023-10-08T10:36:06;101120.56;;;8.63;59.80
19789;BME280;10054;59.332;18.244;2023-10-08T10:38:36;101087.77;;;8.62;60.25
19789;BME280;10054;59.332;18.244;2023-10-08T10:41:06;101088.55;;;8.64;60.27
19789;BME280;10054;59.332;18.244;2023-10-08T10:43:36;101091.45;;;8.76;61.63
19789;BME280;10054;59.332;18.244;2023-10-08T10:46:06;101090.98;;;8.77;58.92
19789;BME280;10054;59.332;18.244;2023-10-08T10:48:53;101093.33;;;8.83;59.27
19789;BME280;10054;59.332;18.244;2023-10-08T10:51:26;101091.33;;;8.88;59.86
19789;BME280;10054;59.332;18.244;2023-10-08T10:53:57;101093.80;;;9.00;60.10
19789;BME280;10054;59.332;18.244;2023-10-08T10:56:28;101097.83;;;8.98;58.50
19789;BME280;10054;59.332;18.244;2023-10-08T10:59:01;101088.00;;;9.02;59.97
19789;BME280;10054;59.332;18.244;2023-10-08T11:01:32;101096.77;;;9.11;60.13
19789;BME280;10054;59.332;18.244;2023-10-08T11:04:03;101105.38;;;9.14;58.33
19789;BME280;10054;59.332;18.244;2023-10-08T11:06:33;101101.72;;;9.08;56.68
19789;BME280;10054;59.332;18.244;2023-10-08T11:09:03;101103.73;;;9.12;57.95
19789;BME280;10054;59.332;18.244;2023-10-08T11:11:33;101125.26;;;9.11;56.26
19789;BME280;10054;59.332;18.244;2023-10-08T11:14:04;101109.47;;;9.11;56.28
19789;BME280;10054;59.332;18.244;2023-10-08T11:16:33;101112.41;;;9.14;56.20
19789;BME280;10054;59.332;18.244;2023-10-08T11:19:02;101127.28;;;9.15;56.09
19789;BME280;10054;59.332;18.244;2023-10-08T11:21:37;101124.31;;;9.04;55.97
19789;BME280;10054;59.332;18.244;2023-10-08T11:24:04;101125.94;;;9.06;56.45
19789;BME280;10054;59.332;18.244;2023-10-08T11:26:40;101130.38;;;9.14;57.98
19789;BME280;10054;59.332;18.244;2023-10-08T11:29:11;101131.08;;;9.18;56.64
19789;BME280;10054;59.332;18.244;2023-10-08T11:31:42;101129.22;;;9.20;55.24
19789;BME280;10054;59.332;18.244;2023-10-08T11:34:11;101138.68;;;9.24;55.60
19789;BME280;10054;59.332;18.244;2023-10-08T11:36:40;101142.48;;;9.27;54.40
19789;BME280;10054;59.332;18.244;2023-10-08T11:39:20;101144.65;;;9.28;55.04
19789;BME280;10054;59.332;18.244;2023-10-08T11:42:00;101161.30;;;9.28;54.87
19789;BME280;10054;59.332;18.244;2023-10-08T11:44:32;101162.98;;;9.20;54.38
19789;BME280;10054;59.332;18.244;2023-10-08T11:47:05;101160.03;;;9.18;54.50
19789;BME280;10054;59.332;18.244;2023-10-08T11:49:41;101163.73;;;9.14;53.50
19789;BME280;10054;59.332;18.244;2023-10-08T11:52:12;101151.59;;;9.20;54.00
19789;BME280;10054;59.332;18.244;2023-10-08T11:54:43;101147.19;;;9.20;53.83
19789;BME280;10054;59.332;18.244;2023-10-08T11:57:12;101155.49;;;9.30;54.95
19789;BME280;10054;59.332;18.244;2023-10-08T11:59:41;101163.32;;;9.32;54.64
19789;BME280;10054;59.332;18.244;2023-10-08T12:02:10;101163.61;;;9.26;53.92
19789;BME280;10054;59.332;18.244;2023-10-08T12:04:40;101165.25;;;9.28;55.60
19789;BME280;10054;59.332;18.244;2023-10-08T12:07:10;101170.91;;;9.29;55.10
19789;BME280;10054;59.332;18.244;2023-10-08T12:09:40;101167.75;;;9.40;56.20
19789;BME280;10054;59.332;18.244;2023-10-08T12:12:09;101172.10;;;9.49;56.51
19789;BME280;10054;59.332;18.244;2023-10-08T12:14:39;101168.83;;;9.36;54.93
19789;BME280;10054;59.332;18.244;2023-10-08T12:17:09;101165.66;;;9.38;55.69
19789;BME280;10054;59.332;18.244;2023-10-08T12:19:43;101168.58;;;9.32;54.36
19789;BME280;10054;59.332;18.244;2023-10-08T12:22:12;101170.29;;;9.33;54.89
19789;BME280;10054;59.332;18.244;2023-10-08T12:24:42;101171.39;;;9.37;53.98
19789;BME280;10054;59.332;18.244;2023-10-08T12:27:11;101175.09;;;9.33;53.63
19789;BME280;10054;59.332;18.244;2023-10-08T12:29:40;101165.09;;;9.31;53.76
19789;BME280;10054;59.332;18.244;2023-10-08T12:32:10;101171.53;;;9.34;54.09
19789;BME280;10054;59.332;18.244;2023-10-08T12:34:40;101181.06;;;9.37;54.06
19789;BME280;10054;59.332;18.244;2023-10-08T12:37:10;101170.68;;;9.34;54.19
19789;BME280;10054;59.332;18.244;2023-10-08T12:39:40;101167.80;;;9.30;54.01
19789;BME280;10054;59.332;18.244;2023-10-08T12:42:10;101175.95;;;9.34;55.11
19789;BME280;10054;59.332;18.244;2023-10-08T12:44:39;101175.27;;;9.39;55.68
19789;BME280;10054;59.332;18.244;2023-10-08T12:47:08;101176.52;;;9.49;56.23
19789;BME280;10054;59.332;18.244;2023-10-08T12:49:39;101177.37;;;9.49;56.09
19789;BME280;10054;59.332;18.244;2023-10-08T12:52:07;101175.91;;;9.52;56.05
19789;BME280;10054;59.332;18.244;2023-10-08T12:54:36;101169.23;;;9.45;56.01
19789;BME280;10054;59.332;18.244;2023-10-08T12:57:06;101177.20;;;9.44;56.22
19789;BME280;10054;59.332;18.244;2023-10-08T12:59:38;101178.30;;;9.48;56.78
19789;BME280;10054;59.332;18.244;2023-10-08T13:02:08;101181.78;;;9.49;57.34
19789;BME280;10054;59.332;18.244;2023-10-08T13:04:38;101205.58;;;9.56;57.30
19789;BME280;10054;59.332;18.244;2023-10-08T13:07:08;101197.52;;;9.50;55.83
19789;BME280;10054;59.332;18.244;2023-10-08T13:09:39;101203.86;;;9.46;55.83
19789;BME280;10054;59.332;18.244;2023-10-08T13:12:08;101203.70;;;9.49;56.21
19789;BME280;10054;59.332;18.244;2023-10-08T13:14:37;101205.48;;;9.49;56.21
19789;BME280;10054;59.332;18.244;2023-10-08T13:17:06;101209.05;;;9.48;55.86
19789;BME280;10054;59.332;18.244;2023-10-08T13:19:38;101209.67;;;9.53;56.23